createdAt,value
2023-05-10T00:00:56.890Z,87.60
2023-05-10T00:03:24.054Z,88.30
2023-05-10T00:05:51.207Z,88.20
2023-05-10T00:08:18.441Z,87.70
2023-05-10T00:10:45.574Z,88.00
2023-05-10T00:13:12.810Z,87.90
2023-05-10T00:15:39.929Z,87.70
2023-05-10T00:18:07.088Z,87.70
2023-05-10T00:20:34.210Z,87.70
2023-05-10T00:23:01.440Z,87.80
2023-05-10T00:25:28.519Z,87.70
2023-05-10T00:27:58.006Z,87.90
2023-05-10T00:30:25.380Z,87.90
2023-05-10T00:32:52.769Z,88.00
2023-05-10T00:35:19.976Z,88.30
2023-05-10T00:37:47.134Z,88.10
2023-05-10T00:40:14.855Z,88.20
2023-05-10T00:42:42.183Z,89.10
2023-05-10T00:45:09.592Z,89.60
2023-05-10T00:47:36.870Z,89.70
2023-05-10T00:50:05.540Z,89.90
2023-05-10T00:52:32.797Z,89.70
2023-05-10T00:55:00.735Z,89.80
2023-05-10T00:57:28.128Z,90.00
2023-05-10T00:59:55.176Z,90.20
2023-05-10T01:02:22.296Z,90.20
2023-05-10T01:04:50.415Z,90.30
2023-05-10T01:07:17.868Z,90.10
2023-05-10T01:09:45.163Z,90.00
2023-05-10T01:12:12.841Z,90.00
2023-05-10T01:14:40.502Z,90.10
2023-05-10T01:17:10.243Z,90.00
2023-05-10T01:19:38.914Z,90.20
2023-05-10T01:22:22.692Z,90.00
2023-05-10T01:24:58.697Z,90.10
2023-05-10T01:28:21.017Z,90.40
2023-05-10T01:31:01.238Z,90.80
2023-05-10T01:33:49.436Z,90.90
2023-05-10T01:36:27.103Z,90.90
2023-05-10T01:38:58.794Z,90.90
2023-05-10T01:41:36.861Z,91.00
2023-05-10T01:44:32.180Z,91.00
2023-05-10T01:47:07.312Z,91.00
2023-05-10T01:49:41.553Z,91.00
2023-05-10T01:52:12.844Z,91.00
2023-05-10T01:54:44.723Z,91.10
2023-05-10T01:57:14.993Z,91.30
2023-05-10T01:59:46.284Z,91.30
2023-05-10T02:02:15.629Z,91.40
2023-05-10T02:04:44.075Z,91.50
2023-05-10T02:07:12.666Z,91.40
2023-05-10T02:09:40.911Z,91.50
2023-05-10T02:12:09.263Z,91.50
2023-05-10T02:14:38.075Z,91.20
2023-05-10T02:17:08.610Z,91.10
2023-05-10T02:19:38.471Z,91.10
2023-05-10T02:22:07.001Z,91.10
2023-05-10T02:24:35.617Z,91.00
2023-05-10T02:27:04.625Z,91.00
2023-05-10T02:29:33.214Z,90.90
2023-05-10T02:32:01.471Z,90.80
2023-05-10T02:34:29.537Z,90.70
2023-05-10T02:36:57.602Z,90.80
2023-05-10T02:39:27.470Z,90.80
2023-05-10T02:41:56.066Z,90.70
2023-05-10T02:44:24.633Z,91.30
2023-05-10T02:46:51.974Z,91.50
2023-05-10T02:49:19.960Z,91.50
2023-05-10T02:51:57.567Z,91.60
2023-05-10T02:54:30.451Z,91.50
2023-05-10T02:57:04.761Z,91.30
2023-05-10T02:59:33.453Z,91.20
2023-05-10T03:02:01.466Z,91.10
2023-05-10T03:04:28.558Z,91.10
2023-05-10T03:06:56.175Z,91.00
2023-05-10T03:09:23.259Z,91.00
2023-05-10T03:12:10.215Z,90.90
2023-05-10T03:14:40.030Z,90.90
2023-05-10T03:17:17.010Z,90.90
2023-05-10T03:19:53.928Z,90.80
2023-05-10T03:22:37.906Z,90.80
2023-05-10T03:25:09.905Z,90.80
2023-05-10T03:27:40.024Z,90.70
2023-05-10T03:30:09.985Z,90.70
2023-05-10T03:32:37.208Z,90.60
2023-05-10T03:35:12.326Z,90.60
2023-05-10T03:37:39.615Z,90.60
2023-05-10T03:40:08.536Z,90.70
2023-05-10T03:42:35.712Z,90.80
2023-05-10T03:45:03.233Z,90.90
2023-05-10T03:47:30.752Z,91.00
2023-05-10T03:49:57.956Z,90.90
2023-05-10T03:52:25.023Z,90.90
2023-05-10T03:54:52.138Z,90.90
2023-05-10T03:57:19.184Z,90.90
2023-05-10T03:59:46.330Z,90.70
2023-05-10T04:02:13.429Z,90.90
2023-05-10T04:04:40.615Z,90.70
2023-05-10T04:07:07.700Z,90.70
2023-05-10T04:09:34.827Z,90.70
2023-05-10T04:12:03.285Z,90.60
2023-05-10T04:14:30.419Z,90.90
2023-05-10T04:16:57.547Z,90.90
2023-05-10T04:19:24.760Z,90.90
2023-05-10T04:21:51.806Z,90.90
2023-05-10T04:24:18.890Z,90.90
2023-05-10T04:26:46.402Z,91.60
2023-05-10T04:29:13.499Z,92.00
2023-05-10T04:31:40.664Z,92.20
2023-05-10T04:34:07.736Z,92.30
2023-05-10T04:36:36.600Z,92.30
2023-05-10T04:39:04.696Z,92.30
2023-05-10T04:41:31.904Z,92.30
2023-05-10T04:43:59.007Z,92.20
2023-05-10T04:46:26.098Z,92.20
2023-05-10T04:48:53.168Z,92.30
2023-05-10T04:51:21.401Z,92.40
2023-05-10T04:54:01.411Z,92.30
2023-05-10T04:56:32.171Z,92.20
2023-05-10T04:58:59.433Z,92.10
2023-05-10T05:01:26.613Z,92.10
2023-05-10T05:03:53.990Z,92.00
2023-05-10T05:06:25.731Z,92.10
2023-05-10T05:08:52.800Z,92.00
2023-05-10T05:11:20.310Z,92.10
2023-05-10T05:13:47.408Z,92.00
2023-05-10T05:16:14.479Z,92.00
2023-05-10T05:18:41.572Z,91.90
2023-05-10T05:21:16.981Z,91.80
2023-05-10T05:23:44.278Z,91.70
2023-05-10T05:26:11.652Z,91.60
2023-05-10T05:28:39.007Z,91.50
2023-05-10T05:31:06.683Z,91.50
2023-05-10T05:33:34.434Z,91.50
2023-05-10T05:36:02.838Z,91.40
2023-05-10T05:38:29.950Z,91.30
2023-05-10T05:40:57.676Z,91.30
2023-05-10T05:43:24.760Z,91.20
2023-05-10T05:45:54.476Z,91.10
2023-05-10T05:48:22.533Z,91.10
2023-05-10T05:50:49.582Z,91.00
2023-05-10T05:53:16.764Z,91.00
2023-05-10T05:55:58.084Z,90.80
2023-05-10T05:58:25.973Z,90.80
2023-05-10T06:00:53.526Z,90.80
2023-05-10T06:03:21.224Z,90.80
2023-05-10T06:05:48.563Z,90.70
2023-05-10T06:08:15.872Z,90.70
2023-05-10T06:10:42.974Z,90.70
2023-05-10T06:13:10.106Z,90.70
2023-05-10T06:15:37.277Z,90.70
2023-05-10T06:18:04.523Z,90.60
2023-05-10T06:20:32.464Z,90.60
2023-05-10T06:22:59.867Z,90.80
2023-05-10T06:25:26.991Z,90.50
2023-05-10T06:27:58.103Z,90.30
2023-05-10T06:30:29.327Z,90.40
2023-05-10T06:32:57.087Z,90.40
2023-05-10T06:35:24.259Z,90.30
2023-05-10T06:37:52.101Z,90.30
2023-05-10T06:40:19.471Z,90.30
2023-05-10T06:42:50.053Z,90.30
2023-05-10T06:45:17.510Z,90.40
2023-05-10T06:47:44.878Z,90.50
2023-05-10T06:50:15.250Z,90.60
2023-05-10T06:52:42.439Z,90.70
2023-05-10T06:55:09.998Z,90.70
2023-05-10T06:57:37.143Z,90.70
2023-05-10T07:00:08.175Z,91.00
2023-05-10T07:02:35.363Z,90.80
2023-05-10T07:05:03.615Z,90.80
2023-05-10T07:07:30.933Z,90.80
2023-05-10T07:09:58.629Z,90.90
2023-05-10T07:12:26.115Z,90.70
2023-05-10T07:14:53.347Z,90.60
2023-05-10T07:17:20.785Z,90.60
2023-05-10T07:19:47.860Z,90.50
2023-05-10T07:22:15.949Z,90.60
2023-05-10T07:24:43.194Z,90.70
2023-05-10T07:27:13.883Z,90.60
2023-05-10T07:29:40.960Z,90.60
2023-05-10T07:32:08.095Z,90.70
2023-05-10T07:34:35.265Z,91.00
2023-05-10T07:37:02.643Z,91.00
2023-05-10T07:39:29.743Z,91.00
2023-05-10T07:41:56.907Z,91.00
2023-05-10T07:44:24.214Z,91.00
2023-05-10T07:46:51.535Z,90.90
2023-05-10T07:49:18.660Z,91.00
2023-05-10T07:51:45.806Z,90.90
2023-05-10T07:54:13.650Z,90.90
2023-05-10T07:56:45.586Z,90.80
2023-05-10T07:59:16.398Z,90.80
2023-05-10T08:01:44.109Z,90.80
2023-05-10T08:04:11.391Z,90.80
2023-05-10T08:06:38.559Z,90.80
2023-05-10T08:09:05.741Z,90.80
2023-05-10T08:11:34.858Z,90.70
2023-05-10T08:14:02.194Z,90.70
2023-05-10T08:16:29.883Z,90.80
2023-05-10T08:18:57.215Z,90.70
2023-05-10T08:21:24.341Z,90.80
2023-05-10T08:23:51.478Z,90.60
2023-05-10T08:26:18.550Z,90.60
2023-05-10T08:28:45.693Z,90.60
2023-05-10T08:31:13.245Z,90.80
2023-05-10T08:33:42.194Z,90.80
2023-05-10T08:36:10.144Z,90.80
2023-05-10T08:38:38.831Z,90.80
2023-05-10T08:41:06.880Z,90.80
2023-05-10T08:43:36.680Z,90.90
2023-05-10T08:46:06.132Z,91.10
2023-05-10T08:48:35.692Z,90.60
2023-05-10T08:51:04.504Z,90.10
2023-05-10T08:53:36.271Z,89.40
2023-05-10T08:56:04.282Z,90.10
2023-05-10T08:58:31.766Z,90.90
2023-05-10T09:01:00.134Z,90.80
2023-05-10T09:03:27.445Z,90.90
2023-05-10T09:05:56.673Z,90.80
2023-05-10T09:08:27.454Z,91.00
2023-05-10T09:10:55.818Z,91.00
2023-05-10T09:13:24.519Z,90.90
2023-05-10T09:15:52.291Z,90.60
2023-05-10T09:18:19.598Z,90.20
2023-05-10T09:20:46.798Z,89.90
2023-05-10T09:23:13.877Z,89.70
2023-05-10T09:25:42.638Z,89.30
2023-05-10T09:28:10.586Z,90.10
2023-05-10T09:30:38.255Z,89.70
2023-05-10T09:33:05.665Z,89.80
2023-05-10T09:35:34.324Z,90.60
2023-05-10T09:38:05.854Z,91.10
2023-05-10T09:40:33.422Z,91.20
2023-05-10T09:43:06.981Z,91.20
2023-05-10T09:45:38.682Z,91.10
2023-05-10T09:48:06.878Z,91.00
2023-05-10T09:50:35.026Z,91.00
2023-05-10T09:53:04.303Z,90.90
2023-05-10T09:55:40.953Z,90.90
2023-05-10T09:58:11.490Z,90.80
2023-05-10T10:00:41.125Z,90.90
2023-05-10T10:03:16.922Z,90.80
2023-05-10T10:05:44.884Z,90.80
2023-05-10T10:08:13.277Z,90.70
2023-05-10T10:10:41.516Z,90.70
2023-05-10T10:13:09.085Z,90.60
2023-05-10T10:15:36.502Z,90.70
2023-05-10T10:18:07.229Z,90.70
2023-05-10T10:20:34.865Z,90.70
2023-05-10T10:23:01.936Z,90.70
2023-05-10T10:25:29.248Z,90.60
2023-05-10T10:28:22.663Z,90.50
2023-05-10T10:30:52.099Z,90.50
2023-05-10T10:33:52.303Z,90.40
2023-05-10T10:36:21.178Z,90.40
2023-05-10T10:38:48.186Z,90.30
2023-05-10T10:41:34.882Z,90.30
2023-05-10T10:44:27.193Z,90.40
2023-05-10T10:47:07.012Z,90.20
2023-05-10T10:49:41.582Z,90.30
2023-05-10T10:52:33.749Z,90.20
2023-05-10T10:55:02.523Z,90.10
2023-05-10T10:57:32.538Z,90.10
2023-05-10T11:00:32.880Z,90.10
2023-05-10T11:03:11.565Z,90.10
2023-05-10T11:05:45.742Z,90.00
2023-05-10T11:08:18.645Z,90.00
2023-05-10T11:10:53.904Z,90.00
2023-05-10T11:13:39.464Z,90.10
2023-05-10T11:16:14.091Z,90.00
2023-05-10T11:18:41.578Z,90.00
2023-05-10T11:21:11.442Z,90.00
2023-05-10T11:23:44.376Z,90.00
2023-05-10T11:26:12.442Z,90.10
2023-05-10T11:28:43.693Z,89.90
2023-05-10T11:31:11.228Z,90.10
2023-05-10T11:33:45.853Z,90.00
2023-05-10T11:36:18.726Z,90.20
2023-05-10T11:38:46.971Z,90.20
2023-05-10T11:41:14.720Z,90.20
2023-05-10T11:43:42.623Z,90.10
2023-05-10T11:46:12.602Z,90.00
2023-05-10T11:48:40.851Z,89.80
2023-05-10T11:51:11.988Z,89.40
2023-05-10T11:53:39.170Z,89.60
2023-05-10T11:56:07.890Z,89.40
2023-05-10T11:58:35.841Z,89.30
2023-05-10T12:01:04.369Z,89.30
2023-05-10T12:03:32.149Z,89.70
2023-05-10T12:06:00.170Z,89.80
2023-05-10T12:08:28.921Z,89.20
2023-05-10T12:11:09.227Z,89.40
2023-05-10T12:13:47.487Z,89.30
2023-05-10T12:16:19.829Z,89.20
2023-05-10T12:18:50.046Z,89.10
2023-05-10T12:21:17.442Z,89.00
2023-05-10T12:23:47.747Z,88.90
2023-05-10T12:26:15.565Z,88.90
2023-05-10T12:28:42.832Z,88.60
2023-05-10T12:31:10.069Z,88.70
2023-05-10T12:33:47.211Z,88.70
2023-05-10T12:36:16.083Z,88.60
2023-05-10T12:38:50.856Z,88.50
2023-05-10T12:41:19.012Z,88.40
2023-05-10T12:43:47.256Z,88.10
2023-05-10T12:46:17.966Z,88.20
2023-05-10T12:48:48.304Z,87.80
2023-05-10T12:51:18.072Z,87.90
2023-05-10T12:53:48.654Z,87.50
2023-05-10T12:56:16.668Z,87.00
2023-05-10T12:58:48.791Z,87.50
2023-05-10T13:01:16.179Z,87.60
2023-05-10T13:03:44.192Z,87.60
2023-05-10T13:06:14.415Z,87.60
2023-05-10T13:08:41.479Z,87.60
2023-05-10T13:11:08.579Z,87.50
2023-05-10T13:13:35.638Z,87.40
2023-05-10T13:16:02.779Z,87.60
2023-05-10T13:18:29.948Z,87.50
2023-05-10T13:20:57.059Z,87.60
2023-05-10T13:23:24.140Z,87.40
2023-05-10T13:25:51.225Z,87.30
2023-05-10T13:28:18.267Z,87.30
2023-05-10T13:30:45.494Z,87.20
2023-05-10T13:33:12.607Z,87.40
2023-05-10T13:35:39.688Z,87.40
2023-05-10T13:38:08.729Z,87.30
2023-05-10T13:40:36.843Z,87.20
2023-05-10T13:43:03.990Z,87.70
2023-05-10T13:45:31.071Z,87.10
2023-05-10T13:47:58.209Z,87.00
2023-05-10T13:50:25.393Z,86.90
2023-05-10T13:52:52.463Z,86.90
2023-05-10T13:55:19.935Z,87.10
2023-05-10T13:57:47.268Z,86.90
2023-05-10T14:00:14.662Z,86.70
2023-05-10T14:02:41.900Z,86.70
2023-05-10T14:05:09.279Z,86.70
2023-05-10T14:07:36.482Z,86.50
2023-05-10T14:10:03.799Z,86.50
2023-05-10T14:12:31.120Z,87.10
2023-05-10T14:14:59.069Z,86.20
2023-05-10T14:17:26.175Z,88.20
2023-05-10T14:19:54.172Z,89.50
2023-05-10T14:22:21.449Z,90.10
2023-05-10T14:24:48.564Z,90.80
2023-05-10T14:27:16.130Z,91.30
2023-05-10T14:29:43.228Z,91.70
2023-05-10T14:32:10.673Z,91.90
2023-05-10T14:34:37.996Z,92.10
2023-05-10T14:37:05.401Z,92.40
2023-05-10T14:39:32.614Z,92.50
2023-05-10T14:41:59.973Z,92.60
2023-05-10T14:44:27.126Z,92.70
2023-05-10T14:46:54.218Z,92.80
2023-05-10T14:49:23.594Z,92.90
2023-05-10T14:51:50.982Z,93.00
2023-05-10T14:54:18.175Z,93.00
2023-05-10T14:56:45.928Z,93.00
2023-05-10T14:59:12.983Z,93.10
2023-05-10T15:01:42.762Z,93.20
2023-05-10T15:04:10.500Z,93.30
2023-05-10T15:06:37.934Z,93.40
2023-05-10T15:09:05.149Z,93.30
2023-05-10T15:11:32.327Z,93.30
2023-05-10T15:13:59.643Z,93.10
2023-05-10T15:16:26.794Z,93.10
2023-05-10T15:18:54.034Z,92.90
2023-05-10T15:21:21.174Z,93.00
2023-05-10T15:23:48.992Z,93.30
2023-05-10T15:26:16.087Z,93.10
2023-05-10T15:28:43.824Z,93.00
2023-05-10T15:31:11.428Z,93.30
2023-05-10T15:33:39.376Z,92.90
2023-05-10T15:36:07.642Z,92.80
2023-05-10T15:38:34.750Z,92.70
2023-05-10T15:41:02.030Z,92.70
2023-05-10T15:43:29.223Z,92.70
2023-05-10T15:45:56.404Z,92.50
2023-05-10T15:48:23.617Z,92.60
2023-05-10T15:50:50.891Z,92.40
2023-05-10T15:53:17.954Z,92.20
2023-05-10T15:55:45.025Z,92.00
2023-05-10T15:58:12.097Z,91.80
2023-05-10T16:00:39.220Z,91.60
2023-05-10T16:03:06.841Z,91.80
2023-05-10T16:05:34.098Z,91.90
2023-05-10T16:08:01.688Z,92.00
2023-05-10T16:10:33.010Z,92.00
2023-05-10T16:13:00.529Z,92.00
2023-05-10T16:15:27.753Z,92.00
2023-05-10T16:17:55.233Z,92.00
2023-05-10T16:20:22.366Z,92.00
2023-05-10T16:22:49.533Z,91.90
2023-05-10T16:25:16.843Z,91.90
2023-05-10T16:27:44.435Z,91.90
2023-05-10T16:30:11.817Z,91.80
2023-05-10T16:32:38.932Z,91.70
2023-05-10T16:35:06.946Z,91.70
2023-05-10T16:37:34.007Z,91.70
2023-05-10T16:40:01.155Z,91.60
2023-05-10T16:42:28.473Z,91.60
2023-05-10T16:44:55.560Z,91.50
2023-05-10T16:47:23.214Z,91.50
2023-05-10T16:49:50.344Z,91.30
2023-05-10T16:52:17.432Z,91.30
2023-05-10T16:54:44.914Z,91.20
2023-05-10T16:57:11.972Z,91.10
2023-05-10T16:59:39.119Z,91.10
2023-05-10T17:02:06.624Z,91.10
2023-05-10T17:04:33.784Z,91.00
2023-05-10T17:07:00.867Z,91.00
2023-05-10T17:09:27.930Z,90.90
2023-05-10T17:11:54.999Z,90.90
2023-05-10T17:14:22.202Z,91.00
2023-05-10T17:16:52.626Z,91.10
2023-05-10T17:19:19.918Z,91.10
2023-05-10T17:21:47.314Z,91.00
2023-05-10T17:24:14.888Z,90.90
2023-05-10T17:26:42.105Z,90.80
2023-05-10T17:29:09.302Z,90.80
2023-05-10T17:31:36.606Z,90.70
2023-05-10T17:34:05.491Z,90.70
2023-05-10T17:36:33.407Z,90.60
2023-05-10T17:39:00.954Z,90.70
2023-05-10T17:41:28.666Z,90.60
2023-05-10T17:43:55.772Z,90.60
2023-05-10T17:46:23.107Z,90.50
2023-05-10T17:48:50.620Z,90.60
2023-05-10T17:51:18.553Z,90.50
2023-05-10T17:53:45.781Z,90.40
2023-05-10T17:56:12.851Z,90.40
2023-05-10T17:58:39.964Z,90.40
2023-05-10T18:01:07.050Z,90.40
2023-05-10T18:03:35.791Z,90.30
2023-05-10T18:06:04.255Z,90.20
2023-05-10T18:08:31.679Z,90.10
2023-05-10T18:10:59.060Z,90.00
2023-05-10T18:13:26.173Z,90.00
2023-05-10T18:15:53.272Z,89.80
2023-05-10T18:18:20.409Z,89.70
2023-05-10T18:20:47.542Z,89.50
2023-05-10T18:23:15.335Z,89.40
2023-05-10T18:25:42.457Z,89.30
2023-05-10T18:28:09.787Z,89.30
2023-05-10T18:30:37.776Z,89.00
2023-05-10T18:33:04.934Z,88.90
2023-05-10T18:35:32.075Z,88.80
2023-05-10T18:37:59.246Z,88.60
2023-05-10T18:40:27.129Z,88.50
2023-05-10T18:42:54.234Z,88.40
2023-05-10T18:45:21.418Z,88.00
2023-05-10T18:47:48.585Z,88.80
2023-05-10T18:50:17.149Z,88.10
2023-05-10T18:52:44.248Z,88.00
2023-05-10T18:55:11.786Z,88.00
2023-05-10T18:57:41.375Z,88.00
2023-05-10T19:00:12.066Z,87.90
2023-05-10T19:02:42.101Z,87.80
2023-05-10T19:05:09.552Z,87.80
2023-05-10T19:07:36.697Z,87.80
2023-05-10T19:10:03.955Z,87.80
2023-05-10T19:12:31.010Z,87.70
2023-05-10T19:14:58.048Z,88.00
2023-05-10T19:17:26.061Z,88.00
2023-05-10T19:19:53.964Z,88.10
2023-05-10T19:22:31.982Z,88.00
2023-05-10T19:25:10.065Z,88.30
2023-05-10T19:27:37.597Z,87.90
2023-05-10T19:30:05.591Z,87.60
2023-05-10T19:32:32.746Z,87.60
2023-05-10T19:34:59.863Z,88.10
2023-05-10T19:37:27.329Z,87.40
2023-05-10T19:39:54.439Z,87.30
2023-05-10T19:42:21.644Z,87.30
2023-05-10T19:44:48.759Z,87.10
2023-05-10T19:47:16.032Z,87.00
2023-05-10T19:49:43.169Z,86.80
2023-05-10T19:52:11.952Z,86.60
2023-05-10T19:54:39.032Z,86.40
2023-05-10T19:57:06.304Z,86.30
2023-05-10T19:59:33.392Z,86.30
2023-05-10T20:02:00.559Z,86.20
2023-05-10T20:04:28.722Z,86.10
2023-05-10T20:06:56.068Z,86.00
2023-05-10T20:09:23.098Z,85.90
2023-05-10T20:11:50.203Z,85.80
2023-05-10T20:14:18.310Z,85.60
2023-05-10T20:16:45.513Z,85.50
2023-05-10T20:19:12.821Z,85.50
2023-05-10T20:21:39.937Z,85.60
2023-05-10T20:24:07.686Z,85.70
2023-05-10T20:26:34.797Z,85.50
2023-05-10T20:29:02.028Z,85.40
2023-05-10T20:31:29.147Z,85.60
2023-05-10T20:33:56.325Z,85.40
2023-05-10T20:36:23.493Z,85.20
2023-05-10T20:38:50.550Z,85.00
2023-05-10T20:41:17.598Z,84.80
2023-05-10T20:43:44.691Z,84.70
2023-05-10T20:46:12.296Z,84.60
2023-05-10T20:48:39.374Z,85.10
2023-05-10T20:51:06.892Z,84.40
2023-05-10T20:53:34.019Z,84.20
2023-05-10T20:56:01.121Z,84.10
2023-05-10T20:58:28.187Z,84.30
2023-05-10T21:00:55.424Z,84.00
2023-05-10T21:03:22.535Z,84.10
2023-05-10T21:05:49.621Z,84.10
2023-05-10T21:08:16.663Z,84.50
2023-05-10T21:10:43.817Z,84.40
2023-05-10T21:13:10.941Z,84.20
2023-05-10T21:15:38.049Z,84.10
2023-05-10T21:18:05.646Z,84.00
2023-05-10T21:20:32.723Z,84.00
2023-05-10T21:22:59.766Z,84.00
2023-05-10T21:25:26.959Z,84.00
2023-05-10T21:27:54.150Z,84.30
2023-05-10T21:30:21.322Z,84.20
2023-05-10T21:32:48.493Z,84.30
2023-05-10T21:35:16.221Z,84.10
2023-05-10T21:37:43.298Z,84.20
2023-05-10T21:40:11.194Z,84.20
2023-05-10T21:42:38.292Z,84.10
2023-05-10T21:45:05.766Z,83.80
2023-05-10T21:47:32.878Z,83.80
2023-05-10T21:50:00.102Z,83.70
2023-05-10T21:52:27.402Z,83.60
2023-05-10T21:54:54.455Z,83.60
2023-05-10T21:57:21.593Z,83.60
2023-05-10T21:59:48.695Z,83.40
2023-05-10T22:02:16.190Z,83.90
2023-05-10T22:04:43.296Z,84.10
2023-05-10T22:07:10.561Z,83.90
2023-05-10T22:09:37.618Z,83.80
2023-05-10T22:12:04.914Z,84.30
2023-05-10T22:14:31.965Z,83.50
2023-05-10T22:16:59.096Z,83.40
2023-05-10T22:19:26.385Z,83.20
2023-05-10T22:21:53.923Z,83.30
2023-05-10T22:24:21.397Z,83.30
2023-05-10T22:26:48.481Z,83.40
2023-05-10T22:29:16.048Z,83.10
2023-05-10T22:31:43.100Z,83.00
2023-05-10T22:34:10.359Z,83.10
2023-05-10T22:36:37.636Z,83.20
2023-05-10T22:39:04.709Z,83.20
2023-05-10T22:41:33.273Z,83.50
2023-05-10T22:44:01.396Z,83.40
2023-05-10T22:46:29.533Z,83.40
2023-05-10T22:48:56.918Z,83.20
2023-05-10T22:51:23.986Z,83.30
2023-05-10T22:53:52.868Z,83.10
2023-05-10T22:56:21.858Z,83.30
2023-05-10T22:58:49.396Z,83.10
2023-05-10T23:01:16.906Z,83.20
2023-05-10T23:03:44.156Z,83.30
2023-05-10T23:06:11.285Z,83.60
2023-05-10T23:08:38.335Z,83.80
2023-05-10T23:11:05.419Z,83.80
2023-05-10T23:13:32.575Z,83.80
2023-05-10T23:16:05.895Z,84.00
2023-05-10T23:18:33.504Z,83.90
2023-05-10T23:21:00.614Z,83.90
2023-05-10T23:23:27.814Z,84.00
2023-05-10T23:25:54.991Z,84.00
2023-05-10T23:28:22.150Z,84.00
2023-05-10T23:30:57.585Z,83.80
2023-05-10T23:33:26.081Z,83.80
2023-05-10T23:35:54.761Z,83.70
2023-05-10T23:38:21.960Z,83.50
2023-05-10T23:40:50.346Z,83.40
2023-05-10T23:43:19.626Z,83.40
2023-05-10T23:45:54.063Z,83.60
2023-05-10T23:48:21.356Z,84.20
2023-05-10T23:50:48.797Z,84.30
2023-05-10T23:53:16.608Z,84.40
2023-05-10T23:55:43.931Z,83.90
2023-05-10T23:58:11.567Z,83.80
